createdAt,value
2023-06-23T00:01:36.689Z,8.90
2023-06-23T00:04:14.529Z,8.20
2023-06-23T00:06:52.111Z,8.00
2023-06-23T00:09:30.103Z,8.00
2023-06-23T00:12:09.280Z,7.30
2023-06-23T00:14:46.756Z,7.60
2023-06-23T00:17:25.196Z,8.90
2023-06-23T00:20:03.381Z,7.80
2023-06-23T00:22:41.695Z,7.00
2023-06-23T00:25:19.907Z,7.50
2023-06-23T00:27:57.407Z,8.80
2023-06-23T00:30:27.963Z,7.90
2023-06-23T00:33:04.695Z,8.80
2023-06-23T00:35:42.148Z,7.00
2023-06-23T00:38:21.545Z,7.90
2023-06-23T00:40:52.287Z,7.70
2023-06-23T00:43:32.230Z,7.50
2023-06-23T00:46:22.736Z,7.90
2023-06-23T00:49:01.898Z,6.30
2023-06-23T00:51:39.333Z,7.90
2023-06-23T00:54:17.012Z,6.80
2023-06-23T00:56:54.819Z,6.30
2023-06-23T00:59:33.323Z,7.50
2023-06-23T01:02:11.844Z,7.60
2023-06-23T01:04:49.731Z,7.70
2023-06-23T01:08:05.373Z,9.20
2023-06-23T01:10:46.097Z,7.80
2023-06-23T01:13:45.942Z,7.40
2023-06-23T01:16:46.069Z,7.90
2023-06-23T01:20:13.128Z,8.40
2023-06-23T01:23:15.711Z,7.50
2023-06-23T01:26:35.390Z,6.70
2023-06-23T01:29:13.032Z,8.30
2023-06-23T01:32:09.638Z,7.40
2023-06-23T01:34:53.868Z,7.10
2023-06-23T01:37:39.253Z,6.70
2023-06-23T01:40:21.499Z,7.30
2023-06-23T01:43:08.563Z,7.20
2023-06-23T01:45:45.751Z,6.30
2023-06-23T01:48:24.877Z,7.60
2023-06-23T01:51:03.887Z,6.50
2023-06-23T01:53:42.556Z,6.10
2023-06-23T01:56:21.611Z,6.60
2023-06-23T01:59:03.662Z,6.90
2023-06-23T02:01:44.213Z,6.70
2023-06-23T02:04:23.396Z,8.60
2023-06-23T02:07:01.640Z,7.30
2023-06-23T02:09:43.034Z,7.20
2023-06-23T02:12:22.098Z,7.40
2023-06-23T02:14:59.259Z,6.40
2023-06-23T02:17:30.765Z,6.40
2023-06-23T02:20:19.192Z,6.80
2023-06-23T02:22:58.138Z,6.30
2023-06-23T02:25:36.792Z,5.40
2023-06-23T02:28:15.465Z,6.00
2023-06-23T02:30:54.224Z,6.20
2023-06-23T02:33:28.150Z,7.40
2023-06-23T02:36:07.769Z,6.20
2023-06-23T02:38:46.756Z,5.80
2023-06-23T02:41:25.298Z,5.90
2023-06-23T02:44:08.140Z,5.60
2023-06-23T02:46:48.512Z,5.60
2023-06-23T02:49:30.016Z,5.70
2023-06-23T02:52:11.829Z,5.50
2023-06-23T02:54:53.973Z,6.90
2023-06-23T02:57:34.321Z,6.70
2023-06-23T03:00:23.131Z,5.40
2023-06-23T03:03:07.728Z,6.20
2023-06-23T03:05:45.300Z,5.60
2023-06-23T03:08:22.694Z,6.60
2023-06-23T03:10:59.676Z,5.00
2023-06-23T03:13:36.524Z,5.50
2023-06-23T03:16:21.833Z,5.20
2023-06-23T03:19:25.427Z,4.80
2023-06-23T03:22:14.376Z,4.80
2023-06-23T03:24:57.822Z,4.20
2023-06-23T03:27:40.083Z,5.20
2023-06-23T03:30:27.282Z,5.70
2023-06-23T03:35:46.305Z,5.30
2023-06-23T03:38:25.322Z,4.20
2023-06-23T03:41:07.546Z,5.00
2023-06-23T03:43:52.552Z,5.20
2023-06-23T03:46:41.379Z,5.00
2023-06-23T03:49:13.675Z,4.80
2023-06-23T03:51:51.809Z,4.10
2023-06-23T03:54:29.594Z,4.10
2023-06-23T03:57:09.749Z,3.80
2023-06-23T03:59:48.657Z,4.00
2023-06-23T04:02:28.644Z,5.30
2023-06-23T04:05:09.199Z,4.90
2023-06-23T04:07:51.658Z,3.80
2023-06-23T04:10:30.143Z,4.80
2023-06-23T04:13:09.913Z,4.70
2023-06-23T04:15:48.390Z,4.20
2023-06-23T04:18:26.552Z,4.30
2023-06-23T04:21:05.831Z,4.30
2023-06-23T04:23:45.709Z,4.30
2023-06-23T04:26:23.641Z,3.60
2023-06-23T04:29:03.456Z,4.50
2023-06-23T04:31:41.740Z,3.50
2023-06-23T04:34:18.475Z,4.20
2023-06-23T04:37:14.785Z,4.60
2023-06-23T04:40:00.007Z,3.40
2023-06-23T04:42:48.460Z,4.40
2023-06-23T04:45:29.973Z,4.50
2023-06-23T04:48:13.420Z,3.80
2023-06-23T04:50:52.896Z,3.90
2023-06-23T04:53:39.524Z,4.20
2023-06-23T04:56:19.515Z,4.00
2023-06-23T04:59:03.161Z,3.90
2023-06-23T05:01:39.696Z,3.90
2023-06-23T05:04:18.871Z,3.80
2023-06-23T05:06:57.261Z,3.60
2023-06-23T05:09:36.620Z,4.40
2023-06-23T05:12:17.700Z,3.40
2023-06-23T05:14:57.407Z,3.30
2023-06-23T05:17:38.128Z,4.20
2023-06-23T05:20:17.419Z,3.50
2023-06-23T05:22:57.223Z,3.00
2023-06-23T05:25:35.536Z,3.30
2023-06-23T05:28:14.407Z,4.00
2023-06-23T05:30:52.760Z,3.80
2023-06-23T05:33:32.672Z,3.70
2023-06-23T05:36:14.165Z,3.60
2023-06-23T05:38:53.631Z,3.30
2023-06-23T05:41:30.700Z,4.00
2023-06-23T05:44:08.913Z,3.00
2023-06-23T05:46:43.553Z,3.60
2023-06-23T05:49:21.295Z,3.10
2023-06-23T05:52:08.626Z,3.10
2023-06-23T05:54:55.466Z,4.00
2023-06-23T05:57:38.339Z,3.10
2023-06-23T06:00:19.082Z,3.60
2023-06-23T06:02:57.830Z,3.30
2023-06-23T06:05:36.036Z,2.10
2023-06-23T06:08:13.988Z,3.30
2023-06-23T06:10:49.391Z,3.30
2023-06-23T06:13:28.249Z,3.00
2023-06-23T06:16:01.048Z,3.10
2023-06-23T06:18:37.182Z,3.50
2023-06-23T06:21:12.804Z,4.00
2023-06-23T06:23:51.434Z,3.70
2023-06-23T06:26:29.417Z,3.40
2023-06-23T06:29:07.718Z,3.60
2023-06-23T06:31:46.659Z,3.60
2023-06-23T06:34:25.817Z,3.40
2023-06-23T06:37:04.362Z,3.10
2023-06-23T06:39:43.968Z,4.00
2023-06-23T06:42:20.841Z,3.70
2023-06-23T06:44:51.225Z,3.80
2023-06-23T06:47:31.032Z,3.60
2023-06-23T06:50:10.035Z,3.40
2023-06-23T06:52:48.756Z,3.40
2023-06-23T06:55:26.782Z,3.50
2023-06-23T06:57:57.993Z,3.20
2023-06-23T07:00:35.768Z,4.40
2023-06-23T07:03:17.439Z,4.00
2023-06-23T07:05:54.735Z,3.50
2023-06-23T07:08:32.057Z,4.00
2023-06-23T07:11:10.474Z,3.90
2023-06-23T07:13:42.230Z,4.30
2023-06-23T07:16:19.624Z,4.40
2023-06-23T07:18:57.257Z,5.40
2023-06-23T07:21:36.091Z,3.40
2023-06-23T07:24:12.733Z,3.80
2023-06-23T07:26:50.531Z,3.40
2023-06-23T07:29:28.230Z,4.70
2023-06-23T07:31:59.432Z,4.20
2023-06-23T07:34:36.977Z,4.80
2023-06-23T07:37:14.716Z,4.70
2023-06-23T07:39:51.865Z,4.10
2023-06-23T07:42:30.845Z,4.30
2023-06-23T07:45:09.356Z,4.50
2023-06-23T07:47:40.308Z,5.70
2023-06-23T07:50:17.517Z,4.70
2023-06-23T07:53:04.163Z,4.20
2023-06-23T07:55:42.653Z,4.80
2023-06-23T07:58:20.132Z,5.60
2023-06-23T08:00:57.314Z,6.00
2023-06-23T08:03:34.643Z,5.10
2023-06-23T08:06:12.477Z,5.70
2023-06-23T08:08:50.823Z,6.40
2023-06-23T08:11:23.461Z,5.10
2023-06-23T08:13:58.778Z,5.80
2023-06-23T08:16:36.326Z,6.60
2023-06-23T08:19:14.248Z,5.80
2023-06-23T08:21:51.556Z,5.80
2023-06-23T08:24:29.027Z,4.10
2023-06-23T08:27:08.210Z,7.00
2023-06-23T08:29:46.109Z,5.90
2023-06-23T08:32:23.806Z,3.30
2023-06-23T08:35:01.765Z,5.70
2023-06-23T08:37:39.346Z,6.40
2023-06-23T08:40:17.987Z,7.80
2023-06-23T08:42:55.912Z,5.90
2023-06-23T08:45:35.999Z,8.50
2023-06-23T08:48:14.203Z,7.30
2023-06-23T08:50:53.152Z,7.90
2023-06-23T08:53:25.821Z,8.10
2023-06-23T08:56:00.098Z,9.60
2023-06-23T08:58:37.836Z,9.80
2023-06-23T09:01:15.046Z,7.50
2023-06-23T09:03:52.777Z,7.30
2023-06-23T09:06:29.751Z,8.20
2023-06-23T09:09:07.053Z,7.30
2023-06-23T09:11:47.713Z,7.80
2023-06-23T09:14:31.811Z,8.40
2023-06-23T09:17:10.244Z,7.60
2023-06-23T09:19:50.922Z,8.50
2023-06-23T09:22:28.880Z,7.20
2023-06-23T09:25:05.700Z,8.40
2023-06-23T09:27:51.256Z,7.20
2023-06-23T09:30:37.223Z,8.80
2023-06-23T09:33:15.285Z,9.20
2023-06-23T09:35:57.516Z,8.80
2023-06-23T09:38:40.755Z,8.80
2023-06-23T09:41:20.743Z,8.90
2023-06-23T09:43:56.116Z,9.80
2023-06-23T09:46:37.822Z,8.80
2023-06-23T09:49:16.157Z,8.50
2023-06-23T09:51:53.306Z,8.40
2023-06-23T09:54:42.413Z,9.00
2023-06-23T09:57:21.426Z,10.80
2023-06-23T10:00:00.038Z,10.50
2023-06-23T10:02:42.092Z,10.50
2023-06-23T10:05:20.244Z,10.30
2023-06-23T10:08:13.952Z,9.50
2023-06-23T10:10:53.739Z,9.40
2023-06-23T10:13:24.405Z,10.30
2023-06-23T10:16:01.890Z,10.50
2023-06-23T10:18:39.297Z,10.10
2023-06-23T10:21:16.465Z,11.30
2023-06-23T10:23:54.006Z,12.70
2023-06-23T10:26:33.201Z,12.00
2023-06-23T10:29:21.203Z,12.00
2023-06-23T10:32:02.087Z,12.20
2023-06-23T10:34:40.840Z,12.50
2023-06-23T10:37:31.659Z,13.60
2023-06-23T10:40:25.971Z,19.10
2023-06-23T10:43:03.527Z,11.50
2023-06-23T10:45:43.074Z,13.60
2023-06-23T10:48:15.229Z,11.60
2023-06-23T10:50:49.064Z,13.10
2023-06-23T10:53:36.240Z,12.20
2023-06-23T10:56:10.376Z,13.60
2023-06-23T10:58:57.567Z,16.20
2023-06-23T11:01:31.944Z,15.40
2023-06-23T11:04:30.627Z,12.40
2023-06-23T11:07:15.508Z,12.50
2023-06-23T11:10:00.751Z,12.30
2023-06-23T11:12:45.106Z,13.30
2023-06-23T11:15:26.353Z,11.20
2023-06-23T11:18:07.151Z,12.80
2023-06-23T11:20:45.461Z,13.30
2023-06-23T11:23:23.088Z,11.60
2023-06-23T11:26:00.918Z,10.20
2023-06-23T11:28:44.263Z,11.50
2023-06-23T11:31:26.273Z,11.20
2023-06-23T11:34:04.588Z,12.70
2023-06-23T11:36:41.814Z,11.00
2023-06-23T11:39:20.415Z,11.20
2023-06-23T11:41:59.037Z,10.50
2023-06-23T11:44:38.445Z,11.50
2023-06-23T11:47:16.647Z,11.00
2023-06-23T11:49:54.637Z,10.70
2023-06-23T11:52:32.963Z,9.10
2023-06-23T11:55:13.461Z,10.80
2023-06-23T11:57:51.723Z,10.90
2023-06-23T12:00:29.931Z,11.40
2023-06-23T12:03:09.417Z,10.80
2023-06-23T12:05:46.508Z,12.30
2023-06-23T12:08:30.852Z,10.00
2023-06-23T12:11:10.121Z,10.40
2023-06-23T12:13:41.182Z,10.80
2023-06-23T12:16:18.616Z,12.50
2023-06-23T12:18:54.975Z,11.90
2023-06-23T12:21:28.144Z,7.30
2023-06-23T12:24:05.674Z,11.00
2023-06-23T12:26:45.859Z,11.70
2023-06-23T12:29:23.907Z,10.90
2023-06-23T12:32:05.861Z,7.90
2023-06-23T12:34:50.477Z,12.10
2023-06-23T12:37:27.310Z,10.40
2023-06-23T12:40:07.350Z,7.10
2023-06-23T12:42:46.882Z,11.00
2023-06-23T12:45:27.402Z,9.50
2023-06-23T12:47:58.911Z,7.50
2023-06-23T12:50:40.280Z,8.10
2023-06-23T12:53:19.374Z,6.60
2023-06-23T12:55:57.437Z,6.50
2023-06-23T12:58:36.538Z,10.20
2023-06-23T13:01:17.990Z,10.60
2023-06-23T13:03:56.893Z,10.50
2023-06-23T13:06:34.514Z,9.80
2023-06-23T13:09:12.367Z,10.00
2023-06-23T13:11:49.423Z,10.50
2023-06-23T13:14:27.518Z,11.60
2023-06-23T13:17:05.649Z,10.10
2023-06-23T13:19:43.624Z,10.10
2023-06-23T13:22:22.038Z,9.50
2023-06-23T13:24:52.688Z,10.20
2023-06-23T13:27:28.395Z,11.50
2023-06-23T13:30:07.237Z,10.70
2023-06-23T13:32:45.733Z,7.50
2023-06-23T13:35:25.471Z,11.00
2023-06-23T13:38:04.514Z,10.00
2023-06-23T13:40:42.913Z,10.10
2023-06-23T13:43:23.072Z,10.10
2023-06-23T13:45:55.794Z,9.70
2023-06-23T13:48:36.502Z,9.80
2023-06-23T13:51:15.504Z,10.20
2023-06-23T13:53:54.223Z,8.90
2023-06-23T13:56:32.417Z,9.60
2023-06-23T13:59:11.852Z,10.30
2023-06-23T14:01:52.890Z,9.90
2023-06-23T14:04:32.874Z,11.20
2023-06-23T14:07:12.421Z,10.20
2023-06-23T14:09:42.851Z,9.70
2023-06-23T14:12:13.434Z,10.70
2023-06-23T14:14:49.940Z,9.80
2023-06-23T14:17:28.584Z,8.10
2023-06-23T14:20:07.891Z,9.80
2023-06-23T14:22:38.354Z,8.90
2023-06-23T14:25:16.682Z,8.30
2023-06-23T14:27:54.139Z,8.20
2023-06-23T14:30:32.242Z,10.80
2023-06-23T14:33:12.032Z,10.80
2023-06-23T14:35:50.199Z,9.70
2023-06-23T14:38:28.868Z,11.50
2023-06-23T14:41:11.088Z,15.00
2023-06-23T14:43:52.705Z,9.10
2023-06-23T14:46:30.826Z,9.70
2023-06-23T14:49:09.978Z,10.20
2023-06-23T14:51:47.850Z,10.10
2023-06-23T14:54:26.829Z,10.10
2023-06-23T14:57:05.314Z,11.50
2023-06-23T14:59:36.778Z,9.20
2023-06-23T15:02:11.636Z,10.30
2023-06-23T15:04:50.516Z,11.00
2023-06-23T15:07:30.262Z,11.90
2023-06-23T15:10:09.402Z,12.10
2023-06-23T15:12:47.332Z,10.50
2023-06-23T15:15:26.456Z,9.80
2023-06-23T15:18:05.286Z,9.70
2023-06-23T15:20:44.152Z,10.20
2023-06-23T15:23:24.080Z,10.10
2023-06-23T15:26:02.796Z,9.00
2023-06-23T15:28:40.456Z,8.30
2023-06-23T15:31:20.821Z,7.90
2023-06-23T15:33:59.014Z,8.60
2023-06-23T15:36:38.151Z,8.50
2023-06-23T15:39:16.810Z,9.00
2023-06-23T15:41:52.189Z,9.10
2023-06-23T15:44:32.940Z,8.50
2023-06-23T15:47:13.228Z,9.30
2023-06-23T15:52:27.377Z,8.30
2023-06-23T15:55:01.044Z,8.40
2023-06-23T15:57:33.079Z,7.90
2023-06-23T16:00:12.204Z,8.20
2023-06-23T16:02:50.262Z,9.00
2023-06-23T16:05:29.811Z,9.60
2023-06-23T16:08:09.972Z,9.10
2023-06-23T16:10:48.127Z,7.70
2023-06-23T16:13:27.194Z,9.60
2023-06-23T16:16:05.669Z,8.90
2023-06-23T16:18:44.000Z,8.20
2023-06-23T16:21:23.168Z,9.10
2023-06-23T16:24:04.213Z,9.50
2023-06-23T16:26:42.806Z,5.80
2023-06-23T16:29:22.007Z,10.80
2023-06-23T16:32:00.470Z,9.70
2023-06-23T16:34:37.089Z,11.30
2023-06-23T16:37:15.493Z,9.90
2023-06-23T16:39:54.171Z,9.80
2023-06-23T16:42:32.421Z,8.50
2023-06-23T16:45:11.965Z,9.50
2023-06-23T16:47:52.886Z,10.60
2023-06-23T16:50:23.254Z,9.90
2023-06-23T16:52:55.015Z,7.80
2023-06-23T16:55:33.822Z,13.00
2023-06-23T16:58:13.397Z,11.00
2023-06-23T17:00:52.065Z,10.20
2023-06-23T17:03:31.088Z,9.70
2023-06-23T17:06:10.571Z,8.60
2023-06-23T17:08:49.613Z,9.70
2023-06-23T17:11:29.349Z,9.10
2023-06-23T17:14:08.883Z,9.50
2023-06-23T17:16:48.778Z,9.00
2023-06-23T17:19:27.684Z,8.80
2023-06-23T17:22:08.076Z,9.70
2023-06-23T17:24:49.365Z,9.10
2023-06-23T17:27:30.291Z,9.90
2023-06-23T17:30:11.570Z,8.80
2023-06-23T17:32:51.000Z,9.70
2023-06-23T17:35:29.810Z,9.20
2023-06-23T17:38:10.467Z,9.30
2023-06-23T17:40:49.103Z,9.20
2023-06-23T17:43:28.371Z,9.00
2023-06-23T17:46:08.983Z,10.00
2023-06-23T17:48:48.206Z,9.50
2023-06-23T17:51:27.256Z,6.40
2023-06-23T17:54:06.300Z,9.30
2023-06-23T17:56:37.059Z,9.80
2023-06-23T17:59:16.328Z,10.60
2023-06-23T18:01:46.757Z,11.50
2023-06-23T18:04:17.912Z,10.30
2023-06-23T18:06:56.226Z,10.40
2023-06-23T18:09:35.118Z,11.10
2023-06-23T18:12:13.817Z,7.90
2023-06-23T18:14:52.512Z,4.70
2023-06-23T18:17:31.000Z,4.50
2023-06-23T18:20:12.275Z,5.60
2023-06-23T18:22:51.020Z,3.90
2023-06-23T18:25:29.743Z,3.70
2023-06-23T18:28:09.408Z,3.80
2023-06-23T18:30:48.210Z,3.80
2023-06-23T18:33:27.065Z,2.90
2023-06-23T18:36:06.408Z,4.50
2023-06-23T18:38:46.770Z,4.00
2023-06-23T18:44:01.992Z,3.30
2023-06-23T18:46:41.756Z,3.70
2023-06-23T18:49:20.121Z,3.40
2023-06-23T18:51:58.160Z,3.20
2023-06-23T18:54:37.989Z,3.40
2023-06-23T18:57:16.365Z,3.70
2023-06-23T18:59:55.679Z,3.00
2023-06-23T19:02:34.325Z,2.60
2023-06-23T19:05:11.021Z,2.70
2023-06-23T19:07:41.428Z,3.30
2023-06-23T19:10:18.837Z,3.20
2023-06-23T19:12:58.629Z,3.20
2023-06-23T19:15:37.226Z,3.70
2023-06-23T19:18:15.888Z,3.10
2023-06-23T19:20:54.029Z,3.20
2023-06-23T19:23:32.724Z,3.00
2023-06-23T19:26:12.205Z,2.60
2023-06-23T19:28:48.203Z,3.20
2023-06-23T19:31:28.819Z,3.10
2023-06-23T19:34:08.286Z,3.00
2023-06-23T19:36:47.149Z,2.90
2023-06-23T19:39:27.008Z,2.90
2023-06-23T19:42:06.211Z,2.20
2023-06-23T19:44:44.451Z,3.30
2023-06-23T19:47:23.091Z,3.20
2023-06-23T19:50:02.845Z,2.40
2023-06-23T19:52:37.378Z,2.50
2023-06-23T19:55:15.868Z,2.80
2023-06-23T19:57:50.158Z,3.30
2023-06-23T20:00:21.196Z,3.30
2023-06-23T20:03:00.062Z,3.20
2023-06-23T20:05:39.712Z,2.70
2023-06-23T20:08:19.289Z,3.20
2023-06-23T20:10:58.783Z,4.00
2023-06-23T20:13:38.079Z,3.90
2023-06-23T20:16:16.799Z,3.30
2023-06-23T20:18:55.447Z,2.40
2023-06-23T20:21:35.824Z,3.70
2023-06-23T20:24:15.199Z,2.70
2023-06-23T20:26:54.534Z,2.70
2023-06-23T20:29:33.617Z,2.80
2023-06-23T20:32:14.824Z,3.10
2023-06-23T20:34:53.225Z,2.50
2023-06-23T20:37:33.015Z,4.10
2023-06-23T20:40:14.907Z,3.80
2023-06-23T20:42:53.512Z,3.00
2023-06-23T20:45:35.286Z,3.30
2023-06-23T20:48:21.165Z,3.60
2023-06-23T20:51:00.225Z,3.30
2023-06-23T20:53:40.368Z,3.00
2023-06-23T20:56:19.981Z,3.50
2023-06-23T20:58:59.290Z,3.40
2023-06-23T21:01:38.502Z,3.20
2023-06-23T21:04:17.648Z,2.70
2023-06-23T21:06:57.379Z,3.50
2023-06-23T21:09:35.606Z,3.50
2023-06-23T21:12:15.084Z,3.00
2023-06-23T21:15:04.716Z,3.60
2023-06-23T21:17:44.838Z,2.90
2023-06-23T21:20:27.379Z,2.50
2023-06-23T21:23:04.609Z,3.50
2023-06-23T21:25:42.819Z,2.60
2023-06-23T21:28:21.896Z,3.70
2023-06-23T21:31:01.872Z,3.90
2023-06-23T21:33:40.843Z,3.20
2023-06-23T21:36:19.525Z,2.70
2023-06-23T21:38:59.116Z,3.00
2023-06-23T21:41:37.781Z,2.60
2023-06-23T21:44:16.892Z,3.30
2023-06-23T21:46:56.054Z,3.20
2023-06-23T21:49:35.170Z,3.70
2023-06-23T21:52:14.943Z,2.10
2023-06-23T21:54:54.136Z,3.40
2023-06-23T21:57:32.310Z,3.50
2023-06-23T22:00:10.659Z,2.90
2023-06-23T22:02:49.559Z,3.00
2023-06-23T22:05:28.593Z,3.00
2023-06-23T22:07:59.461Z,2.90
2023-06-23T22:10:31.812Z,3.10
2023-06-23T22:13:04.181Z,3.60
2023-06-23T22:15:42.915Z,2.90
2023-06-23T22:18:41.539Z,3.70
2023-06-23T22:21:25.633Z,2.90
2023-06-23T22:24:04.282Z,3.30
2023-06-23T22:26:43.360Z,3.60
2023-06-23T22:29:22.475Z,4.20
2023-06-23T22:32:02.264Z,3.70
2023-06-23T22:34:42.898Z,2.00
2023-06-23T22:39:58.200Z,3.60
2023-06-23T22:42:37.269Z,3.80
2023-06-23T22:45:16.385Z,4.60
2023-06-23T22:47:55.334Z,4.80
2023-06-23T22:50:34.321Z,3.60
2023-06-23T22:53:15.677Z,3.30
2023-06-23T22:55:54.487Z,4.00
2023-06-23T22:58:33.197Z,3.60
2023-06-23T23:01:13.513Z,3.70
2023-06-23T23:03:52.423Z,5.00
2023-06-23T23:06:31.118Z,3.40
2023-06-23T23:09:12.099Z,3.30
2023-06-23T23:11:51.383Z,3.60
2023-06-23T23:14:30.534Z,4.00
2023-06-23T23:17:12.539Z,4.50
2023-06-23T23:19:51.305Z,3.80
2023-06-23T23:22:30.825Z,4.40
2023-06-23T23:25:11.732Z,3.00
2023-06-23T23:27:54.257Z,3.90
2023-06-23T23:30:35.440Z,3.40
2023-06-23T23:33:15.267Z,3.50
2023-06-23T23:35:54.546Z,4.10
2023-06-23T23:38:33.957Z,3.30
2023-06-23T23:41:13.849Z,3.80
2023-06-23T23:43:54.556Z,3.90
2023-06-23T23:46:33.622Z,3.50
2023-06-23T23:49:15.398Z,4.30
2023-06-23T23:51:55.080Z,3.40
2023-06-23T23:54:33.626Z,4.50
2023-06-23T23:57:15.409Z,3.70
2023-06-23T23:59:54.803Z,4.10
